sensor_id;sensor_type;location;lat;lon;timestamp;pressure;altitude;pressure_sealevel;temperature;humidity
45467;BME280;31212;49.734;8.490;2023-02-21T00:01:42;101014.91;;;4.58;84.72
45467;BME280;31212;49.734;8.490;2023-02-21T00:04:26;101023.09;;;4.47;85.07
45467;BME280;31212;49.734;8.490;2023-02-21T00:07:10;101018.75;;;4.46;85.44
45467;BME280;31212;49.734;8.490;2023-02-21T00:09:55;101023.03;;;4.46;85.46
45467;BME280;31212;49.734;8.490;2023-02-21T00:12:40;101008.41;;;4.45;85.69
45467;BME280;31212;49.734;8.490;2023-02-21T00:15:24;100996.50;;;4.47;85.32
45467;BME280;31212;49.734;8.490;2023-02-21T00:18:09;100994.41;;;4.36;85.63
45467;BME280;31212;49.734;8.490;2023-02-21T00:20:53;101006.25;;;4.33;85.82
45467;BME280;31212;49.734;8.490;2023-02-21T00:23:37;101011.97;;;4.26;85.80
45467;BME280;31212;49.734;8.490;2023-02-21T00:26:21;101008.34;;;4.20;85.78
45467;BME280;31212;49.734;8.490;2023-02-21T00:29:07;100999.22;;;4.06;85.89
45467;BME280;31212;49.734;8.490;2023-02-21T00:31:51;101005.00;;;4.00;86.20
45467;BME280;31212;49.734;8.490;2023-02-21T00:34:35;101017.69;;;3.96;86.44
45467;BME280;31212;49.734;8.490;2023-02-21T00:37:19;101020.00;;;3.90;86.86
45467;BME280;31212;49.734;8.490;2023-02-21T00:40:04;101023.13;;;3.82;87.49
45467;BME280;31212;49.734;8.490;2023-02-21T00:42:48;101034.03;;;3.77;87.93
45467;BME280;31212;49.734;8.490;2023-02-21T00:45:34;101036.47;;;3.74;88.19
45467;BME280;31212;49.734;8.490;2023-02-21T00:48:19;101038.16;;;3.73;88.47
45467;BME280;31212;49.734;8.490;2023-02-21T00:51:03;101044.84;;;3.69;88.63
45467;BME280;31212;49.734;8.490;2023-02-21T00:53:47;101051.31;;;3.60;88.50
45467;BME280;31212;49.734;8.490;2023-02-21T00:56:31;101043.50;;;3.57;88.83
45467;BME280;31212;49.734;8.490;2023-02-21T00:59:15;101036.72;;;3.59;88.65
45467;BME280;31212;49.734;8.490;2023-02-21T01:02:01;101030.44;;;3.52;88.75
45467;BME280;31212;49.734;8.490;2023-02-21T01:04:45;101021.81;;;3.50;88.57
45467;BME280;31212;49.734;8.490;2023-02-21T01:07:29;101021.47;;;3.42;88.65
45467;BME280;31212;49.734;8.490;2023-02-21T01:10:13;101034.13;;;3.38;88.69
45467;BME280;31212;49.734;8.490;2023-02-21T01:12:57;101040.25;;;3.41;89.24
45467;BME280;31212;49.734;8.490;2023-02-21T01:15:41;101046.34;;;3.43;89.61
45467;BME280;31212;49.734;8.490;2023-02-21T01:18:27;101047.34;;;3.47;89.86
45467;BME280;31212;49.734;8.490;2023-02-21T01:21:11;101060.16;;;3.47;90.49
45467;BME280;31212;49.734;8.490;2023-02-21T01:23:55;101074.25;;;3.55;90.94
45467;BME280;31212;49.734;8.490;2023-02-21T01:26:39;101070.31;;;3.63;91.00
45467;BME280;31212;49.734;8.490;2023-02-21T01:29:23;101066.09;;;3.65;91.47
45467;BME280;31212;49.734;8.490;2023-02-21T01:32:08;101065.28;;;3.66;91.27
45467;BME280;31212;49.734;8.490;2023-02-21T01:34:53;101065.97;;;3.62;91.49
45467;BME280;31212;49.734;8.490;2023-02-21T01:37:38;101057.41;;;3.62;91.61
45467;BME280;31212;49.734;8.490;2023-02-21T01:40:23;101069.84;;;3.74;91.85
45467;BME280;31212;49.734;8.490;2023-02-21T01:43:13;101068.19;;;3.74;92.17
45467;BME280;31212;49.734;8.490;2023-02-21T01:45:57;101064.13;;;3.79;91.78
45467;BME280;31212;49.734;8.490;2023-02-21T01:48:42;101052.50;;;3.68;91.56
45467;BME280;31212;49.734;8.490;2023-02-21T01:51:32;101036.72;;;3.59;91.32
45467;BME280;31212;49.734;8.490;2023-02-21T01:54:17;101020.19;;;3.52;91.26
45467;BME280;31212;49.734;8.490;2023-02-21T01:57:04;101000.78;;;3.38;89.51
45467;BME280;31212;49.734;8.490;2023-02-21T01:59:51;100981.22;;;3.20;89.56
45467;BME280;31212;49.734;8.490;2023-02-21T02:02:46;100986.59;;;3.05;89.79
45467;BME280;31212;49.734;8.490;2023-02-21T02:05:32;100998.72;;;3.09;90.18
45467;BME280;31212;49.734;8.490;2023-02-21T02:08:20;101005.75;;;2.94;90.55
45467;BME280;31212;49.734;8.490;2023-02-21T02:11:14;101009.50;;;3.02;91.27
45467;BME280;31212;49.734;8.490;2023-02-21T02:14:15;101032.31;;;3.15;91.72
45467;BME280;31212;49.734;8.490;2023-02-21T02:16:49;101041.09;;;3.20;92.12
45467;BME280;31212;49.734;8.490;2023-02-21T02:23:01;101061.88;;;3.46;93.74
45467;BME280;31212;49.734;8.490;2023-02-21T02:25:48;101051.81;;;3.51;93.92
45467;BME280;31212;49.734;8.490;2023-02-21T02:28:41;101061.13;;;3.49;93.59
45467;BME280;31212;49.734;8.490;2023-02-21T02:31:32;101057.81;;;3.51;94.28
45467;BME280;31212;49.734;8.490;2023-02-21T02:34:31;101059.56;;;3.52;94.30
45467;BME280;31212;49.734;8.490;2023-02-21T02:37:08;101057.06;;;3.54;94.10
45467;BME280;31212;49.734;8.490;2023-02-21T02:39:40;101037.34;;;3.53;93.44
45467;BME280;31212;49.734;8.490;2023-02-21T02:42:18;101025.06;;;3.46;92.83
45467;BME280;31212;49.734;8.490;2023-02-21T02:44:49;101023.66;;;3.33;92.70
45467;BME280;31212;49.734;8.490;2023-02-21T02:47:22;101027.03;;;3.32;92.84
45467;BME280;31212;49.734;8.490;2023-02-21T02:49:52;101017.66;;;3.32;92.59
45467;BME280;31212;49.734;8.490;2023-02-21T02:52:19;101020.28;;;3.34;92.77
45467;BME280;31212;49.734;8.490;2023-02-21T02:54:57;101015.72;;;3.27;92.98
45467;BME280;31212;49.734;8.490;2023-02-21T02:57:24;101014.69;;;3.23;92.82
45467;BME280;31212;49.734;8.490;2023-02-21T02:59:51;101017.00;;;3.17;92.84
45467;BME280;31212;49.734;8.490;2023-02-21T03:02:29;101037.78;;;3.23;92.70
45467;BME280;31212;49.734;8.490;2023-02-21T03:05:09;101039.06;;;3.33;93.07
45467;BME280;31212;49.734;8.490;2023-02-21T03:07:47;101036.38;;;3.30;93.15
45467;BME280;31212;49.734;8.490;2023-02-21T03:10:22;101035.47;;;3.29;93.59
45467;BME280;31212;49.734;8.490;2023-02-21T03:12:58;101051.88;;;3.33;93.89
45467;BME280;31212;49.734;8.490;2023-02-21T03:15:35;101050.41;;;3.38;94.09
45467;BME280;31212;49.734;8.490;2023-02-21T03:18:08;101048.63;;;3.37;94.62
45467;BME280;31212;49.734;8.490;2023-02-21T03:20:43;101040.25;;;3.41;94.58
45467;BME280;31212;49.734;8.490;2023-02-21T03:23:13;101046.53;;;3.48;94.15
45467;BME280;31212;49.734;8.490;2023-02-21T03:25:44;101039.63;;;3.47;94.12
45467;BME280;31212;49.734;8.490;2023-02-21T03:28:12;101038.66;;;3.43;94.23
45467;BME280;31212;49.734;8.490;2023-02-21T03:30:43;101039.50;;;3.44;94.40
45467;BME280;31212;49.734;8.490;2023-02-21T03:33:10;101037.84;;;3.44;94.73
45467;BME280;31212;49.734;8.490;2023-02-21T03:35:37;101045.34;;;3.40;94.49
45467;BME280;31212;49.734;8.490;2023-02-21T03:38:05;101045.22;;;3.36;94.73
45467;BME280;31212;49.734;8.490;2023-02-21T03:40:33;101056.22;;;3.34;94.91
45467;BME280;31212;49.734;8.490;2023-02-21T03:43:02;101050.88;;;3.29;94.82
45467;BME280;31212;49.734;8.490;2023-02-21T03:45:35;101046.34;;;3.24;95.42
45467;BME280;31212;49.734;8.490;2023-02-21T03:48:12;101049.66;;;3.21;95.24
45467;BME280;31212;49.734;8.490;2023-02-21T03:50:40;101043.25;;;3.11;94.53
45467;BME280;31212;49.734;8.490;2023-02-21T03:53:08;101030.31;;;3.08;93.49
45467;BME280;31212;49.734;8.490;2023-02-21T03:55:37;101013.91;;;2.85;92.87
45467;BME280;31212;49.734;8.490;2023-02-21T03:58:09;101007.41;;;2.74;92.30
45467;BME280;31212;49.734;8.490;2023-02-21T04:00:37;101006.34;;;2.68;92.74
45467;BME280;31212;49.734;8.490;2023-02-21T04:03:03;101011.75;;;2.75;93.11
45467;BME280;31212;49.734;8.490;2023-02-21T04:05:46;101025.78;;;2.83;93.84
45467;BME280;31212;49.734;8.490;2023-02-21T04:08:14;101035.97;;;2.81;93.57
45467;BME280;31212;49.734;8.490;2023-02-21T04:10:41;101039.34;;;2.80;94.21
45467;BME280;31212;49.734;8.490;2023-02-21T04:13:07;101034.50;;;2.86;94.50
45467;BME280;31212;49.734;8.490;2023-02-21T04:15:40;101037.25;;;2.91;94.51
45467;BME280;31212;49.734;8.490;2023-02-21T04:18:06;101033.09;;;2.93;95.06
45467;BME280;31212;49.734;8.490;2023-02-21T04:20:35;101040.03;;;2.96;95.09
45467;BME280;31212;49.734;8.490;2023-02-21T04:23:03;101046.16;;;2.99;95.21
45467;BME280;31212;49.734;8.490;2023-02-21T04:25:32;101036.66;;;2.97;94.60
45467;BME280;31212;49.734;8.490;2023-02-21T04:28:04;101041.53;;;2.91;94.78
45467;BME280;31212;49.734;8.490;2023-02-21T04:30:31;101036.16;;;2.86;94.97
45467;BME280;31212;49.734;8.490;2023-02-21T04:32:58;101038.81;;;2.88;94.78
45467;BME280;31212;49.734;8.490;2023-02-21T04:35:24;101043.13;;;2.89;94.75
45467;BME280;31212;49.734;8.490;2023-02-21T04:37:52;101041.59;;;2.92;95.14
45467;BME280;31212;49.734;8.490;2023-02-21T04:40:19;101045.09;;;2.94;94.95
45467;BME280;31212;49.734;8.490;2023-02-21T04:42:47;101040.78;;;2.93;95.14
45467;BME280;31212;49.734;8.490;2023-02-21T04:45:13;101039.69;;;2.88;95.58
45467;BME280;31212;49.734;8.490;2023-02-21T04:47:40;101043.84;;;2.86;95.41
45467;BME280;31212;49.734;8.490;2023-02-21T04:50:07;101041.03;;;2.80;95.59
45467;BME280;31212;49.734;8.490;2023-02-21T04:52:34;101046.91;;;2.77;95.35
45467;BME280;31212;49.734;8.490;2023-02-21T04:55:00;101040.69;;;2.72;95.82
45467;BME280;31212;49.734;8.490;2023-02-21T04:57:27;101045.47;;;2.64;95.65
45467;BME280;31212;49.734;8.490;2023-02-21T04:59:59;101046.13;;;2.60;95.65
45467;BME280;31212;49.734;8.490;2023-02-21T05:02:26;101040.81;;;2.56;95.87
45467;BME280;31212;49.734;8.490;2023-02-21T05:04:53;101043.44;;;2.57;95.83
45467;BME280;31212;49.734;8.490;2023-02-21T05:07:19;101041.59;;;2.55;95.45
45467;BME280;31212;49.734;8.490;2023-02-21T05:09:46;101037.22;;;2.52;95.46
45467;BME280;31212;49.734;8.490;2023-02-21T05:12:12;101039.94;;;2.55;95.84
45467;BME280;31212;49.734;8.490;2023-02-21T05:14:39;101038.59;;;2.63;96.08
45467;BME280;31212;49.734;8.490;2023-02-21T05:17:07;101042.16;;;2.67;96.34
45467;BME280;31212;49.734;8.490;2023-02-21T05:19:34;101043.84;;;2.66;96.08
45467;BME280;31212;49.734;8.490;2023-02-21T05:22:02;101044.22;;;2.74;96.54
45467;BME280;31212;49.734;8.490;2023-02-21T05:24:30;101043.47;;;2.77;96.36
45467;BME280;31212;49.734;8.490;2023-02-21T05:26:57;101038.41;;;2.78;96.31
45467;BME280;31212;49.734;8.490;2023-02-21T05:29:24;101040.50;;;2.87;96.59
45467;BME280;31212;49.734;8.490;2023-02-21T05:31:51;101034.44;;;2.85;96.31
45467;BME280;31212;49.734;8.490;2023-02-21T05:34:18;101035.66;;;2.93;96.57
45467;BME280;31212;49.734;8.490;2023-02-21T05:36:45;101044.34;;;2.97;97.27
45467;BME280;31212;49.734;8.490;2023-02-21T05:39:12;101034.00;;;2.95;96.64
45467;BME280;31212;49.734;8.490;2023-02-21T05:41:38;101038.41;;;2.98;96.65
45467;BME280;31212;49.734;8.490;2023-02-21T05:44:11;101034.97;;;2.97;96.71
45467;BME280;31212;49.734;8.490;2023-02-21T05:46:37;101034.00;;;2.95;96.80
45467;BME280;31212;49.734;8.490;2023-02-21T05:49:05;101039.81;;;2.91;96.44
45467;BME280;31212;49.734;8.490;2023-02-21T05:51:34;101036.50;;;2.94;96.50
45467;BME280;31212;49.734;8.490;2023-02-21T05:54:02;101034.84;;;2.94;95.98
45467;BME280;31212;49.734;8.490;2023-02-21T05:56:28;101033.56;;;3.04;95.67
45467;BME280;31212;49.734;8.490;2023-02-21T05:58:55;101031.84;;;3.05;95.29
45467;BME280;31212;49.734;8.490;2023-02-21T06:01:21;101025.72;;;3.01;95.07
45467;BME280;31212;49.734;8.490;2023-02-21T06:03:48;101026.47;;;2.98;94.92
45467;BME280;31212;49.734;8.490;2023-02-21T06:06:15;101017.03;;;2.97;95.15
45467;BME280;31212;49.734;8.490;2023-02-21T06:08:44;101016.81;;;2.93;95.03
45467;BME280;31212;49.734;8.490;2023-02-21T06:11:10;101026.25;;;2.94;95.15
45467;BME280;31212;49.734;8.490;2023-02-21T06:13:37;101022.78;;;2.92;95.09
45467;BME280;31212;49.734;8.490;2023-02-21T06:16:04;101026.81;;;2.86;94.39
45467;BME280;31212;49.734;8.490;2023-02-21T06:18:30;101020.78;;;2.86;95.05
45467;BME280;31212;49.734;8.490;2023-02-21T06:20:57;101017.47;;;2.89;95.21
45467;BME280;31212;49.734;8.490;2023-02-21T06:23:23;101029.63;;;2.93;95.27
45467;BME280;31212;49.734;8.490;2023-02-21T06:25:52;101029.72;;;2.94;95.50
45467;BME280;31212;49.734;8.490;2023-02-21T06:28:18;101032.53;;;3.00;95.17
45467;BME280;31212;49.734;8.490;2023-02-21T06:30:45;101037.66;;;3.00;95.56
45467;BME280;31212;49.734;8.490;2023-02-21T06:33:11;101044.63;;;3.03;95.48
45467;BME280;31212;49.734;8.490;2023-02-21T06:35:38;101043.75;;;3.02;95.69
45467;BME280;31212;49.734;8.490;2023-02-21T06:38:04;101048.16;;;3.05;95.55
45467;BME280;31212;49.734;8.490;2023-02-21T06:40:31;101043.94;;;3.07;95.34
45467;BME280;31212;49.734;8.490;2023-02-21T06:42:58;101044.81;;;3.08;95.60
45467;BME280;31212;49.734;8.490;2023-02-21T06:45:25;101046.63;;;3.10;96.07
45467;BME280;31212;49.734;8.490;2023-02-21T06:47:52;101053.66;;;3.14;95.78
45467;BME280;31212;49.734;8.490;2023-02-21T06:50:18;101051.25;;;3.17;95.88
45467;BME280;31212;49.734;8.490;2023-02-21T06:52:45;101046.41;;;3.25;95.54
45467;BME280;31212;49.734;8.490;2023-02-21T06:55:11;101047.44;;;3.29;95.56
45467;BME280;31212;49.734;8.490;2023-02-21T06:57:38;101049.44;;;3.36;95.91
45467;BME280;31212;49.734;8.490;2023-02-21T07:00:07;101047.97;;;3.41;95.35
45467;BME280;31212;49.734;8.490;2023-02-21T07:02:33;101049.72;;;3.42;95.11
45467;BME280;31212;49.734;8.490;2023-02-21T07:05:00;101050.91;;;3.50;95.37
45467;BME280;31212;49.734;8.490;2023-02-21T07:07:26;101044.47;;;3.60;94.91
45467;BME280;31212;49.734;8.490;2023-02-21T07:09:53;101043.88;;;3.66;94.49
45467;BME280;31212;49.734;8.490;2023-02-21T07:12:19;101043.34;;;3.75;94.24
45467;BME280;31212;49.734;8.490;2023-02-21T07:14:45;101034.91;;;3.77;93.96
45467;BME280;31212;49.734;8.490;2023-02-21T07:17:13;101026.50;;;3.81;93.39
45467;BME280;31212;49.734;8.490;2023-02-21T07:19:40;101020.88;;;3.90;93.21
45467;BME280;31212;49.734;8.490;2023-02-21T07:22:07;101013.41;;;3.96;92.65
45467;BME280;31212;49.734;8.490;2023-02-21T07:24:34;101005.19;;;4.05;92.37
45467;BME280;31212;49.734;8.490;2023-02-21T07:27:00;101001.09;;;4.10;92.09
45467;BME280;31212;49.734;8.490;2023-02-21T07:29:27;101000.59;;;4.19;91.78
45467;BME280;31212;49.734;8.490;2023-02-21T07:31:53;100997.38;;;4.25;91.59
45467;BME280;31212;49.734;8.490;2023-02-21T07:34:21;100993.28;;;4.30;91.57
45467;BME280;31212;49.734;8.490;2023-02-21T07:36:48;100996.44;;;4.45;91.24
45467;BME280;31212;49.734;8.490;2023-02-21T07:39:14;100998.69;;;4.60;91.18
45467;BME280;31212;49.734;8.490;2023-02-21T07:41:41;100989.59;;;4.68;90.94
45467;BME280;31212;49.734;8.490;2023-02-21T07:44:08;100995.22;;;4.82;90.73
45467;BME280;31212;49.734;8.490;2023-02-21T07:46:35;100992.31;;;4.97;90.45
45467;BME280;31212;49.734;8.490;2023-02-21T07:49:01;100992.66;;;5.32;90.78
45467;BME280;31212;49.734;8.490;2023-02-21T07:51:29;100991.06;;;6.16;89.78
45467;BME280;31212;49.734;8.490;2023-02-21T07:53:56;100932.22;;;7.28;86.95
45467;BME280;31212;49.734;8.490;2023-02-21T07:56:23;100855.28;;;8.79;82.96
45467;BME280;31212;49.734;8.490;2023-02-21T07:58:49;100681.50;;;9.91;77.32
45467;BME280;31212;49.734;8.490;2023-02-21T08:01:16;100453.78;;;11.04;71.63
45467;BME280;31212;49.734;8.490;2023-02-21T08:03:42;100283.16;;;11.40;68.44
45467;BME280;31212;49.734;8.490;2023-02-21T08:06:09;100132.53;;;12.50;64.11
45467;BME280;31212;49.734;8.490;2023-02-21T08:08:37;100060.53;;;12.48;62.18
45467;BME280;31212;49.734;8.490;2023-02-21T08:11:04;100049.69;;;12.83;61.27
45467;BME280;31212;49.734;8.490;2023-02-21T08:13:30;100064.63;;;13.42;60.78
45467;BME280;31212;49.734;8.490;2023-02-21T08:15:57;99862.22;;;14.28;57.09
45467;BME280;31212;49.734;8.490;2023-02-21T08:18:24;99886.38;;;14.79;56.26
45467;BME280;31212;49.734;8.490;2023-02-21T08:20:51;99756.91;;;15.02;54.18
45467;BME280;31212;49.734;8.490;2023-02-21T08:23:18;99797.56;;;14.77;54.82
45467;BME280;31212;49.734;8.490;2023-02-21T08:25:46;99742.22;;;15.62;53.20
45467;BME280;31212;49.734;8.490;2023-02-21T08:28:13;99739.16;;;16.09;52.24
45467;BME280;31212;49.734;8.490;2023-02-21T08:30:40;99651.78;;;16.38;50.63
45467;BME280;31212;49.734;8.490;2023-02-21T08:33:06;99582.78;;;16.12;49.88
45467;BME280;31212;49.734;8.490;2023-02-21T08:35:33;99610.53;;;16.18;49.94
45467;BME280;31212;49.734;8.490;2023-02-21T08:38:00;99614.69;;;16.76;49.07
45467;BME280;31212;49.734;8.490;2023-02-21T08:40:29;99639.75;;;16.33;50.10
45467;BME280;31212;49.734;8.490;2023-02-21T08:42:58;99586.22;;;16.41;48.94
45467;BME280;31212;49.734;8.490;2023-02-21T08:45:27;99544.94;;;16.97;48.08
45467;BME280;31212;49.734;8.490;2023-02-21T08:47:54;99538.41;;;17.09;47.82
45467;BME280;31212;49.734;8.490;2023-02-21T08:50:22;99519.09;;;17.10;47.33
45467;BME280;31212;49.734;8.490;2023-02-21T08:52:49;99497.53;;;17.70;46.03
45467;BME280;31212;49.734;8.490;2023-02-21T08:55:17;99483.66;;;17.45;46.19
45467;BME280;31212;49.734;8.490;2023-02-21T08:57:44;99543.81;;;17.72;46.47
45467;BME280;31212;49.734;8.490;2023-02-21T09:00:14;99543.75;;;18.58;45.56
45467;BME280;31212;49.734;8.490;2023-02-21T09:02:41;99391.22;;;18.40;44.20
45467;BME280;31212;49.734;8.490;2023-02-21T09:05:09;99495.50;;;18.40;44.96
45467;BME280;31212;49.734;8.490;2023-02-21T09:07:36;99497.31;;;18.38;45.17
45467;BME280;31212;49.734;8.490;2023-02-21T09:10:04;99423.56;;;18.61;43.89
45467;BME280;31212;49.734;8.490;2023-02-21T09:12:31;99467.28;;;18.64;44.17
45467;BME280;31212;49.734;8.490;2023-02-21T09:14:57;99427.81;;;18.05;44.49
45467;BME280;31212;49.734;8.490;2023-02-21T09:17:25;99390.75;;;17.91;44.08
45467;BME280;31212;49.734;8.490;2023-02-21T09:19:52;99455.38;;;18.15;44.58
45467;BME280;31212;49.734;8.490;2023-02-21T09:22:19;99451.75;;;18.58;43.96
45467;BME280;31212;49.734;8.490;2023-02-21T09:24:45;99444.59;;;18.61;44.11
45467;BME280;31212;49.734;8.490;2023-02-21T09:27:12;99410.78;;;19.28;42.83
45467;BME280;31212;49.734;8.490;2023-02-21T09:29:42;99381.00;;;18.72;42.92
45467;BME280;31212;49.734;8.490;2023-02-21T09:32:08;99363.00;;;18.82;42.71
45467;BME280;31212;49.734;8.490;2023-02-21T09:34:36;99398.09;;;19.37;42.29
45467;BME280;31212;49.734;8.490;2023-02-21T09:37:03;99328.38;;;19.45;41.47
45467;BME280;31212;49.734;8.490;2023-02-21T09:39:30;99410.75;;;19.11;42.58
45467;BME280;31212;49.734;8.490;2023-02-21T09:41:57;99394.72;;;20.05;41.42
45467;BME280;31212;49.734;8.490;2023-02-21T09:44:26;99351.25;;;19.96;40.89
45467;BME280;31212;49.734;8.490;2023-02-21T09:46:55;99338.50;;;19.53;41.36
45467;BME280;31212;49.734;8.490;2023-02-21T09:49:28;99405.34;;;19.68;41.91
45467;BME280;31212;49.734;8.490;2023-02-21T09:51:57;99311.72;;;19.96;40.66
45467;BME280;31212;49.734;8.490;2023-02-21T09:54:28;99292.00;;;19.36;41.40
45467;BME280;31212;49.734;8.490;2023-02-21T09:56:56;99366.06;;;17.96;43.44
45467;BME280;31212;49.734;8.490;2023-02-21T09:59:25;99462.34;;;17.53;44.71
45467;BME280;31212;49.734;8.490;2023-02-21T10:01:59;99542.19;;;16.51;46.78
45467;BME280;31212;49.734;8.490;2023-02-21T10:04:41;99659.75;;;15.48;49.43
45467;BME280;31212;49.734;8.490;2023-02-21T10:07:13;99762.72;;;14.78;51.14
45467;BME280;31212;49.734;8.490;2023-02-21T10:09:48;99893.72;;;14.63;52.43
45467;BME280;31212;49.734;8.490;2023-02-21T10:12:23;99937.56;;;14.89;52.73
45467;BME280;31212;49.734;8.490;2023-02-21T10:15:02;99931.91;;;15.45;51.77
45467;BME280;31212;49.734;8.490;2023-02-21T10:17:38;99889.13;;;15.48;51.39
45467;BME280;31212;49.734;8.490;2023-02-21T10:20:12;99870.47;;;15.26;51.35
45467;BME280;31212;49.734;8.490;2023-02-21T10:22:43;99899.38;;;15.21;51.40
45467;BME280;31212;49.734;8.490;2023-02-21T10:25:20;99943.75;;;15.60;51.45
45467;BME280;31212;49.734;8.490;2023-02-21T10:27:48;99854.47;;;16.64;49.32
45467;BME280;31212;49.734;8.490;2023-02-21T10:30:19;99729.53;;;17.89;46.49
45467;BME280;31212;49.734;8.490;2023-02-21T10:32:49;99632.34;;;18.76;44.56
45467;BME280;31212;49.734;8.490;2023-02-21T10:35:15;99528.69;;;19.76;42.63
45467;BME280;31212;49.734;8.490;2023-02-21T10:37:46;99408.28;;;20.30;40.95
45467;BME280;31212;49.734;8.490;2023-02-21T10:40:26;99388.63;;;20.70;40.41
45467;BME280;31212;49.734;8.490;2023-02-21T10:42:55;99331.94;;;21.39;39.23
45467;BME280;31212;49.734;8.490;2023-02-21T10:45:31;99253.13;;;22.47;37.55
45467;BME280;31212;49.734;8.490;2023-02-21T10:48:00;99174.09;;;22.42;36.89
45467;BME280;31212;49.734;8.490;2023-02-21T10:50:43;99121.66;;;21.38;37.06
45467;BME280;31212;49.734;8.490;2023-02-21T10:53:24;99200.28;;;21.33;37.70
45467;BME280;31212;49.734;8.490;2023-02-21T10:58:52;99251.69;;;21.56;37.67
45467;BME280;31212;49.734;8.490;2023-02-21T11:01:22;99252.09;;;21.79;37.22
45467;BME280;31212;49.734;8.490;2023-02-21T11:03:58;99231.81;;;21.65;37.06
45467;BME280;31212;49.734;8.490;2023-02-21T11:06:31;99205.63;;;22.45;36.09
45467;BME280;31212;49.734;8.490;2023-02-21T11:08:59;99169.19;;;22.76;35.54
45467;BME280;31212;49.734;8.490;2023-02-21T11:11:34;99192.88;;;22.78;35.39
45467;BME280;31212;49.734;8.490;2023-02-21T11:14:21;99203.69;;;22.88;35.31
45467;BME280;31212;49.734;8.490;2023-02-21T11:17:04;99149.94;;;22.07;35.75
45467;BME280;31212;49.734;8.490;2023-02-21T11:19:41;99288.03;;;21.96;37.18
45467;BME280;31212;49.734;8.490;2023-02-21T11:22:08;99268.03;;;21.63;36.89
45467;BME280;31212;49.734;8.490;2023-02-21T11:24:46;99302.81;;;20.94;38.29
45467;BME280;31212;49.734;8.490;2023-02-21T11:27:15;99350.91;;;20.36;39.30
45467;BME280;31212;49.734;8.490;2023-02-21T11:29:43;99365.97;;;19.82;39.85
45467;BME280;31212;49.734;8.490;2023-02-21T11:32:21;99444.88;;;19.31;41.21
45467;BME280;31212;49.734;8.490;2023-02-21T11:34:49;99417.88;;;19.45;40.91
45467;BME280;31212;49.734;8.490;2023-02-21T11:37:16;99510.72;;;18.92;42.64
45467;BME280;31212;49.734;8.490;2023-02-21T11:39:50;99530.78;;;18.74;42.88
45467;BME280;31212;49.734;8.490;2023-02-21T11:42:25;99516.22;;;18.66;42.66
45467;BME280;31212;49.734;8.490;2023-02-21T11:45:09;99597.91;;;18.21;44.09
45467;BME280;31212;49.734;8.490;2023-02-21T11:47:42;99623.94;;;18.05;44.40
45467;BME280;31212;49.734;8.490;2023-02-21T11:50:14;99665.22;;;18.01;44.99
45467;BME280;31212;49.734;8.490;2023-02-21T11:52:51;99625.84;;;17.77;44.69
45467;BME280;31212;49.734;8.490;2023-02-21T11:55:23;99667.41;;;17.90;44.99
45467;BME280;31212;49.734;8.490;2023-02-21T11:57:57;99694.66;;;18.09;45.17
45467;BME280;31212;49.734;8.490;2023-02-21T12:00:29;99635.84;;;18.13;44.52
45467;BME280;31212;49.734;8.490;2023-02-21T12:03:07;99608.78;;;18.11;44.36
45467;BME280;31212;49.734;8.490;2023-02-21T12:05:45;99648.47;;;17.81;45.15
45467;BME280;31212;49.734;8.490;2023-02-21T12:08:23;99684.44;;;18.02;45.42
45467;BME280;31212;49.734;8.490;2023-02-21T12:10:59;99698.69;;;18.40;45.02
45467;BME280;31212;49.734;8.490;2023-02-21T12:13:37;99687.47;;;18.14;45.53
45467;BME280;31212;49.734;8.490;2023-02-21T12:16:13;99615.28;;;18.23;44.47
45467;BME280;31212;49.734;8.490;2023-02-21T12:18:55;99660.34;;;18.57;44.84
45467;BME280;31212;49.734;8.490;2023-02-21T12:24:39;99638.31;;;18.59;44.53
45467;BME280;31212;49.734;8.490;2023-02-21T12:27:16;99631.81;;;18.47;44.84
45467;BME280;31212;49.734;8.490;2023-02-21T12:29:56;99638.22;;;18.83;44.48
45467;BME280;31212;49.734;8.490;2023-02-21T12:32:48;99619.06;;;19.00;43.99
45467;BME280;31212;49.734;8.490;2023-02-21T12:38:15;99593.16;;;18.70;44.29
45467;BME280;31212;49.734;8.490;2023-02-21T12:40:51;99560.75;;;18.51;44.17
45467;BME280;31212;49.734;8.490;2023-02-21T12:43:33;99589.56;;;18.31;44.84
45467;BME280;31212;49.734;8.490;2023-02-21T12:46:10;99613.59;;;18.22;45.27
45467;BME280;31212;49.734;8.490;2023-02-21T12:48:43;99610.69;;;18.08;45.22
45467;BME280;31212;49.734;8.490;2023-02-21T12:51:15;99551.84;;;17.68;45.10
45467;BME280;31212;49.734;8.490;2023-02-21T12:53:47;99594.78;;;17.89;45.21
45467;BME280;31212;49.734;8.490;2023-02-21T12:56:19;99620.88;;;17.93;45.63
45467;BME280;31212;49.734;8.490;2023-02-21T12:58:54;99597.41;;;17.89;45.43
45467;BME280;31212;49.734;8.490;2023-02-21T13:01:24;99576.53;;;17.63;45.53
45467;BME280;31212;49.734;8.490;2023-02-21T13:03:55;99589.91;;;17.79;45.17
45467;BME280;31212;49.734;8.490;2023-02-21T13:06:30;99574.63;;;17.67;45.51
45467;BME280;31212;49.734;8.490;2023-02-21T13:09:08;99633.56;;;17.58;46.43
45467;BME280;31212;49.734;8.490;2023-02-21T13:11:39;99550.06;;;17.24;45.81
45467;BME280;31212;49.734;8.490;2023-02-21T13:14:12;99593.69;;;17.26;46.32
45467;BME280;31212;49.734;8.490;2023-02-21T13:16:41;99667.88;;;17.06;47.63
45467;BME280;31212;49.734;8.490;2023-02-21T13:19:09;99610.94;;;17.08;46.61
45467;BME280;31212;49.734;8.490;2023-02-21T13:21:49;99626.59;;;17.11;46.74
45467;BME280;31212;49.734;8.490;2023-02-21T13:24:44;99680.59;;;16.92;47.57
45467;BME280;31212;49.734;8.490;2023-02-21T13:27:36;99603.59;;;16.94;46.64
45467;BME280;31212;49.734;8.490;2023-02-21T13:30:13;99611.34;;;16.97;46.81
45467;BME280;31212;49.734;8.490;2023-02-21T13:32:50;99649.00;;;16.95;47.43
45467;BME280;31212;49.734;8.490;2023-02-21T13:35:20;99643.97;;;17.14;47.28
45467;BME280;31212;49.734;8.490;2023-02-21T13:37:50;99657.81;;;16.94;47.65
45467;BME280;31212;49.734;8.490;2023-02-21T13:40:21;99621.94;;;16.94;46.98
45467;BME280;31212;49.734;8.490;2023-02-21T13:42:58;99660.19;;;17.00;47.58